TimeCST,TemperatureF,Dew PointF,Humidity,Sea Level PressureIn,VisibilityMPH,Wind Direction,Wind SpeedMPH,Gust SpeedMPH,PrecipitationIn,Events,Conditions,WindDirDegrees,DateUTC
12:55 AM,22.5,5.9,49,30.35,10.0,NNW,11.5,-,N/A,,Overcast,330,2013-01-22 06:55:00
1:55 AM,21.2,4.3,48,30.37,10.0,NNW,5.8,-,N/A,,Partly Cloudy,330,2013-01-22 07:55:00
2:55 AM,19.9,0.7,43,30.37,10.0,North,6.9,-,N/A,,Mostly Cloudy,350,2013-01-22 08:55:00
3:55 AM,18.5,2.8,51,30.38,10.0,North,5.8,-,N/A,,Scattered Clouds,350,2013-01-22 09:55:00
4:55 AM,16.7,5.4,61,30.38,10.0,North,6.9,-,N/A,,Clear,10,2013-01-22 10:55:00
5:55 AM,16.9,7.0,65,30.41,10.0,NNE,6.9,-,N/A,,Overcast,20,2013-01-22 11:55:00
6:55 AM,17.6,2.8,53,30.44,10.0,North,9.2,-,N/A,,Overcast,10,2013-01-22 12:55:00
7:55 AM,18.1,3.6,53,30.45,10.0,NNE,8.1,-,N/A,,Overcast,20,2013-01-22 13:55:00
8:55 AM,19.2,0.5,44,30.46,10.0,North,9.2,-,N/A,,Scattered Clouds,10,2013-01-22 14:55:00
9:55 AM,21.2,-2.2,36,30.48,10.0,Variable,4.6,-,N/A,,Partly Cloudy,0,2013-01-22 15:55:00
10:55 AM,21.9,-2.2,35,30.48,10.0,Variable,4.6,-,N/A,,Overcast,0,2013-01-22 16:55:00
11:55 AM,23.5,0.1,36,30.45,10.0,NNW,4.6,-,N/A,,Overcast,330,2013-01-22 17:55:00
12:55 PM,24.3,-0.0,35,30.43,10.0,NW,6.9,-,N/A,,Overcast,310,2013-01-22 18:55:00
1:55 PM,24.8,0.3,35,30.41,10.0,NW,3.5,-,N/A,,Overcast,310,2013-01-22 19:55:00
2:55 PM,25.5,0.1,33,30.42,10.0,Calm,Calm,-,N/A,,Mostly Cloudy,0,2013-01-22 20:55:00
3:55 PM,25.3,-0.9,32,30.41,10.0,Variable,4.6,-,N/A,,Overcast,0,2013-01-22 21:55:00
4:55 PM,25.0,-1.1,32,30.42,10.0,NNW,4.6,-,N/A,,Overcast,330,2013-01-22 22:55:00
5:55 PM,24.8,-0.4,34,30.41,10.0,NNW,3.5,-,N/A,,Overcast,340,2013-01-22 23:55:00
6:55 PM,24.8,-0.2,34,30.40,10.0,NW,3.5,-,N/A,,Overcast,320,2013-01-23 00:55:00
7:55 PM,24.6,0.5,35,30.40,10.0,NNW,3.5,-,N/A,,Overcast,340,2013-01-23 01:55:00
8:55 PM,24.8,2.7,39,30.40,10.0,Calm,Calm,-,N/A,,Overcast,0,2013-01-23 02:55:00
9:55 PM,24.8,2.7,39,30.40,10.0,NNE,4.6,-,N/A,,Overcast,30,2013-01-23 03:55:00
10:55 PM,23.9,5.5,46,30.41,10.0,NE,4.6,-,N/A,,Overcast,40,2013-01-23 04:55:00
11:55 PM,22.3,8.1,54,30.40,10.0,NE,3.5,-,N/A,,Clear,50,2013-01-23 05:55:00